sensor_id;sensor_type;location;lat;lon;timestamp;pressure;altitude;pressure_sealevel;temperature;humidity
73245;BME280;61460;41.158;-73.238;2022-12-24T00:02:17;99320.30;;;24.04;39.03
73245;BME280;61460;41.158;-73.238;2022-12-24T00:04:47;99338.77;;;24.20;38.72
73245;BME280;61460;41.158;-73.238;2022-12-24T00:07:18;99342.84;;;24.16;38.84
73245;BME280;61460;41.158;-73.238;2022-12-24T00:09:48;99338.49;;;23.93;39.01
73245;BME280;61460;41.158;-73.238;2022-12-24T00:12:18;99369.49;;;24.25;38.22
73245;BME280;61460;41.158;-73.238;2022-12-24T00:14:49;99378.87;;;24.22;38.27
73245;BME280;61460;41.158;-73.238;2022-12-24T00:17:20;99384.58;;;24.14;38.46
73245;BME280;61460;41.158;-73.238;2022-12-24T00:19:50;99400.85;;;24.21;38.44
73245;BME280;61460;41.158;-73.238;2022-12-24T00:22:21;99393.35;;;24.13;38.75
73245;BME280;61460;41.158;-73.238;2022-12-24T00:24:51;99399.90;;;24.14;38.71
73245;BME280;61460;41.158;-73.238;2022-12-24T00:27:24;99408.62;;;24.22;38.60
73245;BME280;61460;41.158;-73.238;2022-12-24T00:29:52;99407.32;;;24.26;38.40
73245;BME280;61460;41.158;-73.238;2022-12-24T00:32:22;99429.86;;;24.76;37.43
73245;BME280;61460;41.158;-73.238;2022-12-24T00:34:53;99430.79;;;24.44;37.78
73245;BME280;61460;41.158;-73.238;2022-12-24T00:37:23;99458.70;;;24.46;37.64
73245;BME280;61460;41.158;-73.238;2022-12-24T00:39:55;99462.89;;;24.48;37.75
73245;BME280;61460;41.158;-73.238;2022-12-24T00:42:24;99474.42;;;24.49;37.79
73245;BME280;61460;41.158;-73.238;2022-12-24T00:44:55;99484.76;;;24.49;37.81
73245;BME280;61460;41.158;-73.238;2022-12-24T00:47:26;99482.43;;;24.51;37.89
73245;BME280;61460;41.158;-73.238;2022-12-24T00:49:57;99493.64;;;24.58;37.37
73245;BME280;61460;41.158;-73.238;2022-12-24T00:52:27;99494.24;;;24.40;37.41
73245;BME280;61460;41.158;-73.238;2022-12-24T00:54:57;99498.03;;;23.76;38.22
73245;BME280;61460;41.158;-73.238;2022-12-24T00:57:27;99513.04;;;24.00;38.08
73245;BME280;61460;41.158;-73.238;2022-12-24T00:59:58;99514.01;;;24.28;37.59
73245;BME280;61460;41.158;-73.238;2022-12-24T01:02:28;99513.22;;;24.29;37.70
73245;BME280;61460;41.158;-73.238;2022-12-24T01:04:58;99530.44;;;24.49;37.35
73245;BME280;61460;41.158;-73.238;2022-12-24T01:07:29;99541.14;;;24.84;36.49
73245;BME280;61460;41.158;-73.238;2022-12-24T01:10:00;99543.35;;;24.35;37.41
73245;BME280;61460;41.158;-73.238;2022-12-24T01:12:30;99555.04;;;24.55;37.12
73245;BME280;61460;41.158;-73.238;2022-12-24T01:15:01;99558.30;;;24.56;37.19
73245;BME280;61460;41.158;-73.238;2022-12-24T01:17:31;99561.65;;;24.58;37.34
73245;BME280;61460;41.158;-73.238;2022-12-24T01:20:04;99579.26;;;24.56;37.37
73245;BME280;61460;41.158;-73.238;2022-12-24T01:22:32;99577.40;;;24.55;37.07
73245;BME280;61460;41.158;-73.238;2022-12-24T01:25:03;99586.61;;;24.37;37.32
73245;BME280;61460;41.158;-73.238;2022-12-24T01:27:33;99588.01;;;24.06;37.42
73245;BME280;61460;41.158;-73.238;2022-12-24T01:30:04;99604.88;;;24.27;37.28
73245;BME280;61460;41.158;-73.238;2022-12-24T01:32:34;99611.71;;;24.48;37.10
73245;BME280;61460;41.158;-73.238;2022-12-24T01:35:05;99628.58;;;24.47;37.14
73245;BME280;61460;41.158;-73.238;2022-12-24T01:37:35;99626.23;;;24.65;36.64
73245;BME280;61460;41.158;-73.238;2022-12-24T01:40:07;99635.09;;;24.37;38.17
73245;BME280;61460;41.158;-73.238;2022-12-24T01:42:37;99630.78;;;24.48;36.95
73245;BME280;61460;41.158;-73.238;2022-12-24T01:47:37;99641.54;;;24.06;37.18
73245;BME280;61460;41.158;-73.238;2022-12-24T01:50:14;99652.45;;;24.08;37.66
73245;BME280;61460;41.158;-73.238;2022-12-24T01:52:38;99653.48;;;24.27;37.00
73245;BME280;61460;41.158;-73.238;2022-12-24T01:55:13;99662.05;;;24.34;36.72
73245;BME280;61460;41.158;-73.238;2022-12-24T01:57:43;99671.98;;;24.21;36.72
73245;BME280;61460;41.158;-73.238;2022-12-24T02:00:13;99691.96;;;24.54;36.35
73245;BME280;61460;41.158;-73.238;2022-12-24T02:02:44;99698.18;;;24.35;36.57
73245;BME280;61460;41.158;-73.238;2022-12-24T02:05:15;99704.05;;;24.11;36.72
73245;BME280;61460;41.158;-73.238;2022-12-24T02:07:43;99708.50;;;24.15;36.36
73245;BME280;61460;41.158;-73.238;2022-12-24T02:10:14;99719.27;;;24.22;36.47
73245;BME280;61460;41.158;-73.238;2022-12-24T02:12:44;99718.23;;;24.33;36.28
73245;BME280;61460;41.158;-73.238;2022-12-24T02:15:17;99727.44;;;24.33;36.42
73245;BME280;61460;41.158;-73.238;2022-12-24T02:17:52;99742.07;;;24.28;36.61
73245;BME280;61460;41.158;-73.238;2022-12-24T02:23:01;99765.44;;;23.90;36.74
73245;BME280;61460;41.158;-73.238;2022-12-24T02:25:29;99767.43;;;23.67;37.20
73245;BME280;61460;41.158;-73.238;2022-12-24T02:27:55;99763.97;;;23.96;36.68
73245;BME280;61460;41.158;-73.238;2022-12-24T02:30:20;99773.27;;;24.05;36.58
73245;BME280;61460;41.158;-73.238;2022-12-24T02:35:24;99783.20;;;24.18;36.39
73245;BME280;61460;41.158;-73.238;2022-12-24T02:37:55;99785.92;;;24.13;36.34
73245;BME280;61460;41.158;-73.238;2022-12-24T02:40:23;99792.13;;;23.92;36.73
73245;BME280;61460;41.158;-73.238;2022-12-24T02:42:54;99801.20;;;23.82;36.40
73245;BME280;61460;41.158;-73.238;2022-12-24T02:45:22;99822.06;;;24.07;36.18
73245;BME280;61460;41.158;-73.238;2022-12-24T02:47:52;99830.75;;;24.19;35.96
73245;BME280;61460;41.158;-73.238;2022-12-24T02:50:23;99834.03;;;24.22;35.93
73245;BME280;61460;41.158;-73.238;2022-12-24T02:52:53;99843.11;;;24.22;35.86
73245;BME280;61460;41.158;-73.238;2022-12-24T02:55:31;99873.52;;;23.92;36.14
73245;BME280;61460;41.158;-73.238;2022-12-24T02:58:03;99871.56;;;23.89;36.01
73245;BME280;61460;41.158;-73.238;2022-12-24T03:00:27;99888.44;;;24.04;35.75
73245;BME280;61460;41.158;-73.238;2022-12-24T03:03:07;99895.05;;;24.21;35.61
73245;BME280;61460;41.158;-73.238;2022-12-24T03:05:32;99900.55;;;24.16;35.88
73245;BME280;61460;41.158;-73.238;2022-12-24T03:08:01;99912.04;;;23.91;35.79
73245;BME280;61460;41.158;-73.238;2022-12-24T03:10:32;99921.12;;;23.77;35.64
73245;BME280;61460;41.158;-73.238;2022-12-24T03:13:02;99928.02;;;23.91;35.84
73245;BME280;61460;41.158;-73.238;2022-12-24T03:15:29;99925.74;;;24.14;35.63
73245;BME280;61460;41.158;-73.238;2022-12-24T03:18:01;99942.80;;;24.21;35.54
73245;BME280;61460;41.158;-73.238;2022-12-24T03:20:33;99943.12;;;24.03;35.56
73245;BME280;61460;41.158;-73.238;2022-12-24T03:23:02;99942.21;;;23.94;35.57
73245;BME280;61460;41.158;-73.238;2022-12-24T03:25:33;99958.74;;;23.62;35.50
73245;BME280;61460;41.158;-73.238;2022-12-24T03:28:04;99971.75;;;23.53;35.83
73245;BME280;61460;41.158;-73.238;2022-12-24T03:30:33;99978.86;;;23.81;36.47
73245;BME280;61460;41.158;-73.238;2022-12-24T03:33:03;99988.05;;;23.64;35.97
73245;BME280;61460;41.158;-73.238;2022-12-24T03:35:34;99994.70;;;23.53;36.22
73245;BME280;61460;41.158;-73.238;2022-12-24T03:38:05;100001.00;;;23.31;36.30
73245;BME280;61460;41.158;-73.238;2022-12-24T03:40:35;100012.93;;;23.30;36.02
73245;BME280;61460;41.158;-73.238;2022-12-24T03:43:06;100021.91;;;23.44;36.65
73245;BME280;61460;41.158;-73.238;2022-12-24T03:45:37;100024.31;;;23.51;36.60
73245;BME280;61460;41.158;-73.238;2022-12-24T03:48:07;100024.03;;;23.31;36.31
73245;BME280;61460;41.158;-73.238;2022-12-24T03:50:37;100030.00;;;23.25;36.31
73245;BME280;61460;41.158;-73.238;2022-12-24T03:53:08;100034.10;;;23.02;36.57
73245;BME280;61460;41.158;-73.238;2022-12-24T03:55:39;100030.78;;;23.07;36.22
73245;BME280;61460;41.158;-73.238;2022-12-24T03:58:09;100036.86;;;23.27;37.09
73245;BME280;61460;41.158;-73.238;2022-12-24T04:00:40;100052.65;;;23.35;36.95
73245;BME280;61460;41.158;-73.238;2022-12-24T04:03:11;100052.62;;;23.26;36.69
73245;BME280;61460;41.158;-73.238;2022-12-24T04:05:41;100047.76;;;23.30;36.18
73245;BME280;61460;41.158;-73.238;2022-12-24T04:08:12;100073.14;;;23.02;36.69
73245;BME280;61460;41.158;-73.238;2022-12-24T04:10:42;100070.63;;;22.97;36.39
73245;BME280;61460;41.158;-73.238;2022-12-24T04:13:13;100071.43;;;23.24;35.79
73245;BME280;61460;41.158;-73.238;2022-12-24T04:15:44;100081.82;;;23.14;36.74
73245;BME280;61460;41.158;-73.238;2022-12-24T04:18:14;100084.22;;;23.13;36.83
73245;BME280;61460;41.158;-73.238;2022-12-24T04:20:45;100095.36;;;22.98;36.31
73245;BME280;61460;41.158;-73.238;2022-12-24T04:23:15;100098.06;;;23.15;36.16
73245;BME280;61460;41.158;-73.238;2022-12-24T04:25:46;100098.06;;;22.91;36.25
73245;BME280;61460;41.158;-73.238;2022-12-24T04:28:17;100108.78;;;22.88;36.05
73245;BME280;61460;41.158;-73.238;2022-12-24T04:30:47;100121.17;;;23.03;36.50
73245;BME280;61460;41.158;-73.238;2022-12-24T04:33:18;100127.86;;;23.07;36.55
73245;BME280;61460;41.158;-73.238;2022-12-24T04:35:49;100129.91;;;23.04;36.59
73245;BME280;61460;41.158;-73.238;2022-12-24T04:38:19;100138.73;;;22.86;36.23
73245;BME280;61460;41.158;-73.238;2022-12-24T04:40:58;100148.96;;;22.80;36.41
73245;BME280;61460;41.158;-73.238;2022-12-24T04:43:20;100147.71;;;22.76;36.12
73245;BME280;61460;41.158;-73.238;2022-12-24T04:45:51;100149.86;;;22.83;35.95
73245;BME280;61460;41.158;-73.238;2022-12-24T04:48:22;100159.50;;;22.87;36.56
73245;BME280;61460;41.158;-73.238;2022-12-24T04:50:52;100155.42;;;22.95;36.52
73245;BME280;61460;41.158;-73.238;2022-12-24T04:53:23;100152.41;;;22.78;36.14
73245;BME280;61460;41.158;-73.238;2022-12-24T04:55:54;100160.96;;;22.87;36.13
73245;BME280;61460;41.158;-73.238;2022-12-24T04:58:25;100161.88;;;22.79;35.96
73245;BME280;61460;41.158;-73.238;2022-12-24T05:00:55;100160.92;;;22.73;35.87
73245;BME280;61460;41.158;-73.238;2022-12-24T05:03:26;100172.80;;;22.85;36.18
73245;BME280;61460;41.158;-73.238;2022-12-24T05:06:00;100190.99;;;22.87;36.41
73245;BME280;61460;41.158;-73.238;2022-12-24T05:08:27;100193.92;;;22.91;36.34
73245;BME280;61460;41.158;-73.238;2022-12-24T05:10:57;100197.50;;;22.75;35.98
73245;BME280;61460;41.158;-73.238;2022-12-24T05:13:29;100206.41;;;22.65;36.32
73245;BME280;61460;41.158;-73.238;2022-12-24T05:15:59;100222.43;;;22.51;36.12
73245;BME280;61460;41.158;-73.238;2022-12-24T05:18:29;100227.99;;;22.76;35.62
73245;BME280;61460;41.158;-73.238;2022-12-24T05:21:00;100236.04;;;22.73;36.40
73245;BME280;61460;41.158;-73.238;2022-12-24T05:23:30;100231.36;;;22.87;36.34
73245;BME280;61460;41.158;-73.238;2022-12-24T05:26:02;100239.68;;;22.61;36.43
73245;BME280;61460;41.158;-73.238;2022-12-24T05:28:32;100241.27;;;22.64;36.32
73245;BME280;61460;41.158;-73.238;2022-12-24T05:31:02;100235.40;;;22.48;36.31
73245;BME280;61460;41.158;-73.238;2022-12-24T05:33:33;100236.51;;;22.58;36.05
73245;BME280;61460;41.158;-73.238;2022-12-24T05:36:04;100242.92;;;22.68;36.75
73245;BME280;61460;41.158;-73.238;2022-12-24T05:38:34;100244.46;;;22.73;36.92
73245;BME280;61460;41.158;-73.238;2022-12-24T05:41:05;100240.68;;;22.79;36.70
73245;BME280;61460;41.158;-73.238;2022-12-24T05:43:36;100235.49;;;22.87;35.94
73245;BME280;61460;41.158;-73.238;2022-12-24T05:46:08;100241.90;;;22.53;36.49
73245;BME280;61460;41.158;-73.238;2022-12-24T05:48:37;100241.42;;;22.59;36.09
73245;BME280;61460;41.158;-73.238;2022-12-24T05:51:09;100250.59;;;22.66;35.84
73245;BME280;61460;41.158;-73.238;2022-12-24T05:53:39;100258.05;;;22.79;36.73
73245;BME280;61460;41.158;-73.238;2022-12-24T05:56:10;100253.91;;;22.72;36.17
73245;BME280;61460;41.158;-73.238;2022-12-24T05:58:40;100258.08;;;22.92;35.53
73245;BME280;61460;41.158;-73.238;2022-12-24T06:01:11;100255.45;;;22.62;36.08
73245;BME280;61460;41.158;-73.238;2022-12-24T06:03:41;100254.80;;;22.42;36.14
73245;BME280;61460;41.158;-73.238;2022-12-24T06:06:13;100266.13;;;22.58;35.75
73245;BME280;61460;41.158;-73.238;2022-12-24T06:08:42;100273.53;;;22.69;36.41
73245;BME280;61460;41.158;-73.238;2022-12-24T06:11:15;100269.76;;;22.78;36.36
73245;BME280;61460;41.158;-73.238;2022-12-24T06:13:44;100273.72;;;22.65;35.80
73245;BME280;61460;41.158;-73.238;2022-12-24T06:16:15;100277.94;;;22.65;35.96
73245;BME280;61460;41.158;-73.238;2022-12-24T06:18:45;100281.00;;;22.44;36.04
73245;BME280;61460;41.158;-73.238;2022-12-24T06:21:15;100285.48;;;22.49;35.84
73245;BME280;61460;41.158;-73.238;2022-12-24T06:23:46;100280.16;;;22.70;36.40
73245;BME280;61460;41.158;-73.238;2022-12-24T06:26:18;100278.00;;;22.75;36.38
73245;BME280;61460;41.158;-73.238;2022-12-24T06:28:48;100277.14;;;22.56;36.18
73245;BME280;61460;41.158;-73.238;2022-12-24T06:31:19;100285.24;;;22.63;35.74
73245;BME280;61460;41.158;-73.238;2022-12-24T06:33:49;100301.74;;;22.36;36.27
73245;BME280;61460;41.158;-73.238;2022-12-24T06:36:20;100293.60;;;22.26;36.12
73245;BME280;61460;41.158;-73.238;2022-12-24T06:38:50;100300.61;;;22.52;36.09
73245;BME280;61460;41.158;-73.238;2022-12-24T06:41:21;100318.67;;;22.71;36.52
73245;BME280;61460;41.158;-73.238;2022-12-24T06:43:52;100312.58;;;22.76;35.82
73245;BME280;61460;41.158;-73.238;2022-12-24T06:46:21;100317.25;;;22.67;35.99
73245;BME280;61460;41.158;-73.238;2022-12-24T06:48:52;100326.66;;;22.38;36.14
73245;BME280;61460;41.158;-73.238;2022-12-24T06:51:22;100338.26;;;22.19;36.17
73245;BME280;61460;41.158;-73.238;2022-12-24T06:53:53;100346.87;;;22.43;35.78
73245;BME280;61460;41.158;-73.238;2022-12-24T06:56:24;100346.96;;;22.69;36.17
73245;BME280;61460;41.158;-73.238;2022-12-24T06:58:54;100354.35;;;22.57;35.68
73245;BME280;61460;41.158;-73.238;2022-12-24T07:01:25;100353.57;;;22.71;35.80
73245;BME280;61460;41.158;-73.238;2022-12-24T07:03:56;100368.14;;;22.34;35.98
73245;BME280;61460;41.158;-73.238;2022-12-24T07:06:28;100367.42;;;22.35;35.75
73245;BME280;61460;41.158;-73.238;2022-12-24T07:08:57;100375.80;;;22.63;35.18
73245;BME280;61460;41.158;-73.238;2022-12-24T07:11:27;100381.64;;;22.67;36.68
73245;BME280;61460;41.158;-73.238;2022-12-24T07:13:58;100391.92;;;22.78;36.01
73245;BME280;61460;41.158;-73.238;2022-12-24T07:16:29;100390.90;;;22.56;35.83
73245;BME280;61460;41.158;-73.238;2022-12-24T07:18:59;100393.27;;;22.65;35.91
73245;BME280;61460;41.158;-73.238;2022-12-24T07:21:30;100406.03;;;22.33;35.93
73245;BME280;61460;41.158;-73.238;2022-12-24T07:24:01;100413.94;;;22.41;35.57
73245;BME280;61460;41.158;-73.238;2022-12-24T07:26:31;100415.51;;;22.55;36.87
73245;BME280;61460;41.158;-73.238;2022-12-24T07:29:02;100414.45;;;22.62;36.00
73245;BME280;61460;41.158;-73.238;2022-12-24T07:31:33;100420.19;;;22.42;35.76
73245;BME280;61460;41.158;-73.238;2022-12-24T07:34:03;100422.78;;;22.44;35.88
73245;BME280;61460;41.158;-73.238;2022-12-24T07:36:34;100419.13;;;22.31;35.78
73245;BME280;61460;41.158;-73.238;2022-12-24T07:39:04;100418.56;;;22.27;35.63
73245;BME280;61460;41.158;-73.238;2022-12-24T07:41:35;100419.97;;;22.51;36.43
73245;BME280;61460;41.158;-73.238;2022-12-24T07:44:06;100427.97;;;22.51;35.77
73245;BME280;61460;41.158;-73.238;2022-12-24T07:46:36;100420.40;;;22.48;35.81
73245;BME280;61460;41.158;-73.238;2022-12-24T07:49:07;100423.05;;;22.38;35.67
73245;BME280;61460;41.158;-73.238;2022-12-24T07:51:38;100430.39;;;22.17;35.91
73245;BME280;61460;41.158;-73.238;2022-12-24T07:54:09;100431.18;;;22.18;35.59
73245;BME280;61460;41.158;-73.238;2022-12-24T07:56:39;100435.70;;;22.33;35.35
73245;BME280;61460;41.158;-73.238;2022-12-24T07:59:12;100439.98;;;22.29;35.68
73245;BME280;61460;41.158;-73.238;2022-12-24T08:01:40;100449.79;;;22.69;34.89
73245;BME280;61460;41.158;-73.238;2022-12-24T08:04:11;100453.64;;;22.55;35.87
73245;BME280;61460;41.158;-73.238;2022-12-24T08:06:41;100443.69;;;22.44;35.40
73245;BME280;61460;41.158;-73.238;2022-12-24T08:09:12;100436.53;;;22.19;35.60
73245;BME280;61460;41.158;-73.238;2022-12-24T08:11:43;100431.49;;;22.36;35.21
73245;BME280;61460;41.158;-73.238;2022-12-24T08:14:14;100427.92;;;22.48;36.72
73245;BME280;61460;41.158;-73.238;2022-12-24T08:16:44;100427.30;;;22.34;35.98
73245;BME280;61460;41.158;-73.238;2022-12-24T08:19:14;100424.60;;;22.47;35.67
73245;BME280;61460;41.158;-73.238;2022-12-24T08:21:45;100422.64;;;22.29;35.57
73245;BME280;61460;41.158;-73.238;2022-12-24T08:24:16;100422.11;;;22.07;35.63
73245;BME280;61460;41.158;-73.238;2022-12-24T08:26:46;100425.67;;;22.30;35.07
73245;BME280;61460;41.158;-73.238;2022-12-24T08:29:17;100432.30;;;22.39;35.98
73245;BME280;61460;41.158;-73.238;2022-12-24T08:31:48;100438.96;;;22.46;36.25
73245;BME280;61460;41.158;-73.238;2022-12-24T08:34:18;100447.31;;;22.23;35.64
73245;BME280;61460;41.158;-73.238;2022-12-24T08:36:49;100451.90;;;22.29;35.56
73245;BME280;61460;41.158;-73.238;2022-12-24T08:39:20;100453.50;;;22.06;35.49
73245;BME280;61460;41.158;-73.238;2022-12-24T08:41:50;100449.93;;;22.05;35.47
73245;BME280;61460;41.158;-73.238;2022-12-24T08:44:21;100458.48;;;22.29;36.11
73245;BME280;61460;41.158;-73.238;2022-12-24T08:46:51;100451.85;;;22.25;35.36
73245;BME280;61460;41.158;-73.238;2022-12-24T08:49:22;100456.98;;;22.39;35.43
73245;BME280;61460;41.158;-73.238;2022-12-24T08:51:53;100455.39;;;22.47;36.22
73245;BME280;61460;41.158;-73.238;2022-12-24T08:54:24;100452.48;;;22.10;35.31
73245;BME280;61460;41.158;-73.238;2022-12-24T08:56:54;100459.79;;;22.03;35.27
73245;BME280;61460;41.158;-73.238;2022-12-24T08:59:25;100450.07;;;22.32;35.93
73245;BME280;61460;41.158;-73.238;2022-12-24T09:01:55;100456.77;;;22.39;35.64
73245;BME280;61460;41.158;-73.238;2022-12-24T09:04:26;100453.19;;;22.44;35.93
73245;BME280;61460;41.158;-73.238;2022-12-24T09:06:56;100452.26;;;22.39;35.00
73245;BME280;61460;41.158;-73.238;2022-12-24T09:09:27;100456.83;;;22.11;35.47
73245;BME280;61460;41.158;-73.238;2022-12-24T09:11:58;100457.09;;;22.00;35.28
73245;BME280;61460;41.158;-73.238;2022-12-24T09:14:28;100458.10;;;22.14;35.05
73245;BME280;61460;41.158;-73.238;2022-12-24T09:16:59;100466.02;;;22.35;35.50
73245;BME280;61460;41.158;-73.238;2022-12-24T09:19:30;100454.98;;;22.39;34.78
73245;BME280;61460;41.158;-73.238;2022-12-24T09:22:00;100467.00;;;22.32;35.15
73245;BME280;61460;41.158;-73.238;2022-12-24T09:24:31;100466.51;;;22.26;35.02
73245;BME280;61460;41.158;-73.238;2022-12-24T09:27:01;100476.57;;;22.16;34.99
73245;BME280;61460;41.158;-73.238;2022-12-24T09:29:32;100473.11;;;22.40;34.54
73245;BME280;61460;41.158;-73.238;2022-12-24T09:32:03;100479.77;;;22.37;35.63
73245;BME280;61460;41.158;-73.238;2022-12-24T09:34:33;100472.50;;;22.36;35.54
73245;BME280;61460;41.158;-73.238;2022-12-24T09:37:04;100476.55;;;22.23;35.02
73245;BME280;61460;41.158;-73.238;2022-12-24T09:39:35;100480.15;;;22.12;35.33
73245;BME280;61460;41.158;-73.238;2022-12-24T09:42:14;100485.35;;;21.91;35.00
73245;BME280;61460;41.158;-73.238;2022-12-24T09:44:40;100483.93;;;22.07;34.77
73245;BME280;61460;41.158;-73.238;2022-12-24T09:47:11;100490.85;;;22.19;35.37
73245;BME280;61460;41.158;-73.238;2022-12-24T09:49:41;100492.61;;;22.08;34.83
73245;BME280;61460;41.158;-73.238;2022-12-24T09:52:10;100494.78;;;22.23;34.94
73245;BME280;61460;41.158;-73.238;2022-12-24T09:54:41;100493.78;;;22.20;34.73
73245;BME280;61460;41.158;-73.238;2022-12-24T09:57:14;100496.40;;;21.92;34.79
73245;BME280;61460;41.158;-73.238;2022-12-24T09:59:42;100498.87;;;22.05;34.55
73245;BME280;61460;41.158;-73.238;2022-12-24T10:02:12;100505.76;;;22.16;35.11
73245;BME280;61460;41.158;-73.238;2022-12-24T10:04:42;100496.14;;;22.23;35.14
73245;BME280;61460;41.158;-73.238;2022-12-24T10:07:22;100490.93;;;22.18;34.62
73245;BME280;61460;41.158;-73.238;2022-12-24T10:09:47;100493.34;;;22.13;34.61
73245;BME280;61460;41.158;-73.238;2022-12-24T10:12:17;100492.67;;;21.99;34.68
73245;BME280;61460;41.158;-73.238;2022-12-24T10:14:53;100498.68;;;22.00;34.45
73245;BME280;61460;41.158;-73.238;2022-12-24T10:17:27;100506.91;;;22.15;35.05
73245;BME280;61460;41.158;-73.238;2022-12-24T10:19:49;100512.90;;;22.21;34.83
73245;BME280;61460;41.158;-73.238;2022-12-24T10:22:21;100513.77;;;22.19;34.61
73245;BME280;61460;41.158;-73.238;2022-12-24T10:24:51;100503.89;;;22.05;34.90
73245;BME280;61460;41.158;-73.238;2022-12-24T10:27:18;100505.60;;;21.87;34.88
73245;BME280;61460;41.158;-73.238;2022-12-24T10:29:49;100510.63;;;21.92;34.79
73245;BME280;61460;41.158;-73.238;2022-12-24T10:32:21;100516.06;;;22.20;35.14
73245;BME280;61460;41.158;-73.238;2022-12-24T10:34:54;100522.30;;;22.08;34.59
73245;BME280;61460;41.158;-73.238;2022-12-24T10:37:22;100522.06;;;22.21;34.71
73245;BME280;61460;41.158;-73.238;2022-12-24T10:39:50;100522.57;;;22.17;34.54
73245;BME280;61460;41.158;-73.238;2022-12-24T10:42:22;100523.41;;;21.85;34.85
73245;BME280;61460;41.158;-73.238;2022-12-24T10:44:55;100527.52;;;22.08;34.42
73245;BME280;61460;41.158;-73.238;2022-12-24T10:47:22;100535.18;;;22.18;35.20
73245;BME280;61460;41.158;-73.238;2022-12-24T10:49:59;100530.93;;;22.08;34.75
73245;BME280;61460;41.158;-73.238;2022-12-24T10:52:28;100535.74;;;22.16;34.56
73245;BME280;61460;41.158;-73.238;2022-12-24T10:57:25;100546.38;;;21.76;34.75
73245;BME280;61460;41.158;-73.238;2022-12-24T10:59:55;100555.02;;;22.00;34.75
73245;BME280;61460;41.158;-73.238;2022-12-24T11:02:28;100550.25;;;22.01;34.89
73245;BME280;61460;41.158;-73.238;2022-12-24T11:04:56;100559.35;;;22.20;34.15
73245;BME280;61460;41.158;-73.238;2022-12-24T11:07:27;100568.20;;;22.11;34.41
73245;BME280;61460;41.158;-73.238;2022-12-24T11:09:58;100571.00;;;21.71;34.70
73245;BME280;61460;41.158;-73.238;2022-12-24T11:12:30;100573.64;;;21.85;34.26
73245;BME280;61460;41.158;-73.238;2022-12-24T11:15:02;100575.58;;;22.07;35.40
73245;BME280;61460;41.158;-73.238;2022-12-24T11:17:29;100572.28;;;22.19;35.10
73245;BME280;61460;41.158;-73.238;2022-12-24T11:20:00;100567.16;;;21.95;34.88
73245;BME280;61460;41.158;-73.238;2022-12-24T11:22:31;100565.69;;;22.01;34.94
73245;BME280;61460;41.158;-73.238;2022-12-24T11:25:03;100568.54;;;21.74;34.88
73245;BME280;61460;41.158;-73.238;2022-12-24T11:27:39;100571.03;;;21.75;34.49
73245;BME280;61460;41.158;-73.238;2022-12-24T11:32:32;100579.23;;;21.95;34.63
73245;BME280;61460;41.158;-73.238;2022-12-24T11:35:05;100588.04;;;22.18;34.25
73245;BME280;61460;41.158;-73.238;2022-12-24T11:37:34;100586.39;;;21.84;34.62
73245;BME280;61460;41.158;-73.238;2022-12-24T11:40:05;100586.62;;;21.69;34.91
73245;BME280;61460;41.158;-73.238;2022-12-24T11:42:36;100588.19;;;21.91;34.39
73245;BME280;61460;41.158;-73.238;2022-12-24T11:47:37;100605.64;;;22.15;34.91
73245;BME280;61460;41.158;-73.238;2022-12-24T11:52:37;100606.87;;;21.93;34.54
73245;BME280;61460;41.158;-73.238;2022-12-24T11:55:15;100599.80;;;21.74;34.59
73245;BME280;61460;41.158;-73.238;2022-12-24T11:57:44;100603.18;;;21.93;34.25
73245;BME280;61460;41.158;-73.238;2022-12-24T12:00:10;100607.96;;;22.08;34.96
73245;BME280;61460;41.158;-73.238;2022-12-24T12:02:42;100609.46;;;22.03;34.21
73245;BME280;61460;41.158;-73.238;2022-12-24T12:05:14;100610.58;;;22.08;35.03
73245;BME280;61460;41.158;-73.238;2022-12-24T12:07:42;100610.57;;;21.74;34.66
73245;BME280;61460;41.158;-73.238;2022-12-24T12:10:17;100628.20;;;21.64;34.42
73245;BME280;61460;41.158;-73.238;2022-12-24T12:12:44;100628.77;;;21.99;34.58
73245;BME280;61460;41.158;-73.238;2022-12-24T12:15:15;100639.60;;;22.11;34.59
73245;BME280;61460;41.158;-73.238;2022-12-24T12:17:46;100645.70;;;22.15;34.85
73245;BME280;61460;41.158;-73.238;2022-12-24T12:20:17;100631.32;;;21.86;34.41
73245;BME280;61460;41.158;-73.238;2022-12-24T12:22:49;100635.96;;;21.55;34.48
73245;BME280;61460;41.158;-73.238;2022-12-24T12:25:20;100637.21;;;21.56;34.24
73245;BME280;61460;41.158;-73.238;2022-12-24T12:27:48;100635.82;;;21.78;33.97
73245;BME280;61460;41.158;-73.238;2022-12-24T12:30:18;100636.29;;;21.91;34.28
73245;BME280;61460;41.158;-73.238;2022-12-24T12:32:51;100647.39;;;21.96;34.27
73245;BME280;61460;41.158;-73.238;2022-12-24T12:35:23;100651.33;;;21.93;33.90
73245;BME280;61460;41.158;-73.238;2022-12-24T12:37:54;100660.90;;;21.45;34.57
73245;BME280;61460;41.158;-73.238;2022-12-24T12:40:18;100664.53;;;21.38;34.51
73245;BME280;61460;41.158;-73.238;2022-12-24T12:42:55;100666.65;;;21.76;33.94
73245;BME280;61460;41.158;-73.238;2022-12-24T12:45:31;100672.46;;;21.96;34.01
73245;BME280;61460;41.158;-73.238;2022-12-24T12:47:58;100668.77;;;22.03;34.05
73245;BME280;61460;41.158;-73.238;2022-12-24T12:50:24;100670.15;;;22.13;34.59
73245;BME280;61460;41.158;-73.238;2022-12-24T12:53:01;100659.41;;;21.98;34.48
73245;BME280;61460;41.158;-73.238;2022-12-24T12:55:30;100663.35;;;22.05;34.12
73245;BME280;61460;41.158;-73.238;2022-12-24T12:57:56;100668.16;;;22.09;34.23
73245;BME280;61460;41.158;-73.238;2022-12-24T13:00:23;100671.28;;;22.23;33.89
73245;BME280;61460;41.158;-73.238;2022-12-24T13:03:11;100674.41;;;22.37;33.84
73245;BME280;61460;41.158;-73.238;2022-12-24T13:13:08;100670.08;;;22.12;34.58
73245;BME280;61460;41.158;-73.238;2022-12-24T13:15:40;100681.72;;;22.67;34.11